createdAt,value
2018-12-30T00:01:47.154Z,17.65
2018-12-30T00:04:15.881Z,22.82
2018-12-30T00:06:44.742Z,8.53
2018-12-30T00:09:13.429Z,10.08
2018-12-30T00:11:41.844Z,13.05
2018-12-30T00:14:10.331Z,13.00
2018-12-30T00:16:38.771Z,14.87
2018-12-30T00:19:18.326Z,11.50
2018-12-30T00:21:47.171Z,11.50
2018-12-30T00:24:15.586Z,8.83
2018-12-30T00:26:44.650Z,13.18
2018-12-30T00:29:13.099Z,17.75
2018-12-30T00:31:47.776Z,10.85
2018-12-30T00:34:16.242Z,19.75
2018-12-30T00:36:45.040Z,13.93
2018-12-30T00:39:13.719Z,16.65
2018-12-30T00:41:42.159Z,6.87
2018-12-30T00:44:10.630Z,12.07
2018-12-30T00:46:39.114Z,8.48
2018-12-30T00:49:07.918Z,12.13
2018-12-30T00:51:36.313Z,17.12
2018-12-30T00:54:04.701Z,8.00
2018-12-30T00:56:33.205Z,12.13
2018-12-30T00:59:01.609Z,12.90
2018-12-30T01:01:30.221Z,9.15
2018-12-30T01:03:58.686Z,11.38
2018-12-30T01:06:27.160Z,13.13
2018-12-30T01:08:55.796Z,13.70
2018-12-30T01:11:24.429Z,14.00
2018-12-30T01:13:52.821Z,12.28
2018-12-30T01:16:21.237Z,11.83
2018-12-30T01:18:49.646Z,17.52
2018-12-30T01:21:24.919Z,15.83
2018-12-30T01:23:48.467Z,11.50
2018-12-30T01:26:17.158Z,15.28
2018-12-30T01:28:47.159Z,10.03
2018-12-30T01:31:16.356Z,12.70
2018-12-30T01:33:47.827Z,10.68
2018-12-30T01:36:17.799Z,17.07
2018-12-30T01:38:54.205Z,12.37
2018-12-30T01:41:22.653Z,10.20
2018-12-30T01:43:51.053Z,16.50
2018-12-30T01:46:19.925Z,17.95
2018-12-30T01:48:48.354Z,18.40
2018-12-30T01:51:16.846Z,16.80
2018-12-30T01:53:45.241Z,15.58
2018-12-30T01:56:13.698Z,19.98
2018-12-30T01:58:42.101Z,18.27
2018-12-30T02:01:11.009Z,17.05
2018-12-30T02:03:39.410Z,17.27
2018-12-30T02:06:07.891Z,14.18
2018-12-30T02:08:39.249Z,17.37
2018-12-30T02:11:07.650Z,18.60
2018-12-30T02:13:36.123Z,14.50
2018-12-30T02:16:04.517Z,16.77
2018-12-30T02:18:33.093Z,24.12
2018-12-30T02:21:01.540Z,21.33
2018-12-30T02:23:32.849Z,19.35
2018-12-30T02:26:01.238Z,20.45
2018-12-30T02:28:29.651Z,10.95
2018-12-30T02:30:58.073Z,8.43
2018-12-30T02:33:26.474Z,19.75
2018-12-30T02:35:55.198Z,8.58
2018-12-30T02:38:23.599Z,11.30
2018-12-30T02:40:52.094Z,10.95
2018-12-30T02:43:20.490Z,14.05
2018-12-30T02:45:48.955Z,13.05
2018-12-30T02:48:17.381Z,8.60
2018-12-30T02:50:45.774Z,16.25
2018-12-30T02:53:14.170Z,12.03
2018-12-30T02:55:42.554Z,17.48
2018-12-30T02:58:10.956Z,12.50
2018-12-30T03:00:39.590Z,15.68
2018-12-30T03:03:08.374Z,15.53
2018-12-30T03:05:36.782Z,19.30
2018-12-30T03:08:05.415Z,12.45
2018-12-30T03:10:33.807Z,11.60
2018-12-30T03:13:02.484Z,18.73
2018-12-30T03:15:30.901Z,16.32
2018-12-30T03:17:59.542Z,15.98
2018-12-30T03:20:27.945Z,13.00
2018-12-30T03:22:56.342Z,9.80
2018-12-30T03:25:24.738Z,12.47
2018-12-30T03:27:53.134Z,10.95
2018-12-30T03:30:21.538Z,25.02
2018-12-30T03:32:49.956Z,14.25
2018-12-30T03:35:18.340Z,16.48
2018-12-30T03:37:46.741Z,17.62
2018-12-30T03:40:15.161Z,21.95
2018-12-30T03:42:44.061Z,11.08
2018-12-30T03:45:12.697Z,19.75
2018-12-30T03:47:41.338Z,16.35
2018-12-30T03:50:09.742Z,13.48
2018-12-30T03:52:38.134Z,20.57
2018-12-30T03:55:06.610Z,18.92
2018-12-30T03:57:35.008Z,16.40
2018-12-30T04:00:03.483Z,12.30
2018-12-30T04:02:31.871Z,19.65
2018-12-30T04:05:00.398Z,13.83
2018-12-30T04:07:29.122Z,22.55
2018-12-30T04:09:57.760Z,18.55
2018-12-30T04:12:26.154Z,15.95
2018-12-30T04:14:54.554Z,12.60
2018-12-30T04:17:23.220Z,15.83
2018-12-30T04:19:51.613Z,13.85
2018-12-30T04:22:20.021Z,18.98
2018-12-30T04:24:48.421Z,14.75
2018-12-30T04:27:16.816Z,12.00
2018-12-30T04:29:45.214Z,16.40
2018-12-30T04:32:19.502Z,18.65
2018-12-30T04:34:47.893Z,18.17
2018-12-30T04:37:16.298Z,14.53
2018-12-30T04:39:44.685Z,26.55
2018-12-30T04:42:13.085Z,14.60
2018-12-30T04:44:41.728Z,27.87
2018-12-30T04:47:10.354Z,13.32
2018-12-30T04:49:38.753Z,21.37
2018-12-30T04:52:07.178Z,11.20
2018-12-30T04:54:35.600Z,9.63
2018-12-30T04:57:03.992Z,17.65
2018-12-30T04:59:32.382Z,12.28
2018-12-30T05:02:00.778Z,21.40
2018-12-30T05:04:29.189Z,13.15
2018-12-30T05:06:57.638Z,13.43
2018-12-30T05:09:26.264Z,16.57
2018-12-30T05:11:54.966Z,20.60
2018-12-30T05:14:23.361Z,18.90
2018-12-30T05:16:52.004Z,15.93
2018-12-30T05:19:20.395Z,10.63
2018-12-30T05:21:48.794Z,17.75
2018-12-30T05:24:17.189Z,14.65
2018-12-30T05:26:45.594Z,15.45
2018-12-30T05:29:14.076Z,11.65
2018-12-30T05:31:42.494Z,23.60
2018-12-30T05:34:10.878Z,19.10
2018-12-30T05:36:39.298Z,18.55
2018-12-30T05:39:07.697Z,14.10
2018-12-30T05:41:36.374Z,16.93
2018-12-30T05:44:04.751Z,12.65
2018-12-30T05:46:33.376Z,17.67
2018-12-30T05:49:01.773Z,13.80
2018-12-30T05:51:30.399Z,20.43
2018-12-30T05:53:58.794Z,13.53
2018-12-30T05:56:27.434Z,31.27
2018-12-30T05:58:55.826Z,28.77
2018-12-30T06:01:24.469Z,16.27
2018-12-30T06:03:53.122Z,11.55
2018-12-30T06:06:21.520Z,15.38
2018-12-30T06:08:49.926Z,18.05
2018-12-30T06:11:18.318Z,14.70
2018-12-30T06:13:46.714Z,28.20
2018-12-30T06:16:15.102Z,23.87
2018-12-30T06:18:43.518Z,30.20
2018-12-30T06:21:12.157Z,19.17
2018-12-30T06:23:40.838Z,22.22
2018-12-30T06:26:09.229Z,19.80
2018-12-30T06:28:37.641Z,17.23
2018-12-30T06:31:06.026Z,21.42
2018-12-30T06:33:34.444Z,14.85
2018-12-30T06:36:02.833Z,16.97
2018-12-30T06:38:31.226Z,18.30
2018-12-30T06:40:59.643Z,21.20
2018-12-30T06:43:28.266Z,25.10
2018-12-30T06:45:56.662Z,15.13
2018-12-30T06:48:25.291Z,22.40
2018-12-30T06:50:53.692Z,28.77
2018-12-30T06:53:22.097Z,25.45
2018-12-30T06:55:50.495Z,12.73
2018-12-30T06:58:18.908Z,17.42
2018-12-30T07:00:47.293Z,18.87
2018-12-30T07:03:15.944Z,18.60
2018-12-30T07:05:44.329Z,17.27
2018-12-30T07:08:12.752Z,28.85
2018-12-30T07:10:41.199Z,19.25
2018-12-30T07:13:09.595Z,18.90
2018-12-30T07:15:38.005Z,16.50
2018-12-30T07:18:06.388Z,14.70
2018-12-30T07:20:34.782Z,15.80
2018-12-30T07:23:05.901Z,21.52
2018-12-30T07:25:33.304Z,22.98
2018-12-30T07:28:01.697Z,28.65
2018-12-30T07:30:30.334Z,20.80
2018-12-30T07:32:58.757Z,15.00
2018-12-30T07:35:27.160Z,14.90
2018-12-30T07:37:55.580Z,16.82
2018-12-30T07:40:24.192Z,23.90
2018-12-30T07:42:52.597Z,23.87
2018-12-30T07:45:20.981Z,20.57
2018-12-30T07:47:49.399Z,22.45
2018-12-30T07:50:17.795Z,24.15
2018-12-30T07:52:46.413Z,19.75
2018-12-30T07:55:14.810Z,22.00
2018-12-30T07:57:43.446Z,19.32
2018-12-30T08:00:11.859Z,13.60
2018-12-30T08:02:40.250Z,21.20
2018-12-30T08:05:08.650Z,21.97
2018-12-30T08:07:37.054Z,22.70
2018-12-30T08:10:05.613Z,18.35
2018-12-30T08:12:34.017Z,13.32
2018-12-30T08:15:02.448Z,15.32
2018-12-30T08:17:30.834Z,21.48
2018-12-30T08:19:59.233Z,11.83
2018-12-30T08:22:27.629Z,13.78
2018-12-30T08:24:56.264Z,15.60
2018-12-30T08:27:24.655Z,25.32
2018-12-30T08:29:53.313Z,22.25
2018-12-30T08:32:21.952Z,13.80
2018-12-30T08:34:50.350Z,26.12
2018-12-30T08:37:18.991Z,13.85
2018-12-30T08:39:47.381Z,20.30
2018-12-30T08:42:16.038Z,16.45
2018-12-30T08:44:44.438Z,22.62
2018-12-30T08:47:12.831Z,21.10
2018-12-30T08:49:41.222Z,16.85
2018-12-30T08:52:09.651Z,21.48
2018-12-30T08:54:38.020Z,21.00
2018-12-30T08:57:06.424Z,12.20
2018-12-30T08:59:34.813Z,22.32
2018-12-30T09:02:03.226Z,16.12
2018-12-30T09:04:31.626Z,15.70
2018-12-30T09:07:00.031Z,16.85
2018-12-30T09:09:28.514Z,15.18
2018-12-30T09:11:56.902Z,25.25
2018-12-30T09:14:25.293Z,21.73
2018-12-30T09:16:53.689Z,31.65
2018-12-30T09:19:22.917Z,14.33
2018-12-30T09:21:51.314Z,13.53
2018-12-30T09:24:19.706Z,19.67
2018-12-30T09:26:48.126Z,28.60
2018-12-30T09:29:16.771Z,17.50
2018-12-30T09:31:45.170Z,20.68
2018-12-30T09:34:13.818Z,22.82
2018-12-30T09:36:42.214Z,25.00
2018-12-30T09:39:10.609Z,23.10
2018-12-30T09:41:39.006Z,24.65
2018-12-30T09:44:07.411Z,21.40
2018-12-30T09:46:35.806Z,22.48
2018-12-30T09:49:04.201Z,19.92
2018-12-30T09:51:32.596Z,16.95
2018-12-30T09:54:00.993Z,14.35
2018-12-30T09:56:29.426Z,15.08
2018-12-30T09:58:57.842Z,22.65
2018-12-30T10:01:26.217Z,18.05
2018-12-30T10:03:54.624Z,13.22
2018-12-30T10:06:23.021Z,16.12
2018-12-30T10:08:51.417Z,16.75
2018-12-30T10:11:19.810Z,23.25
2018-12-30T10:13:48.221Z,20.35
2018-12-30T10:16:16.622Z,17.82
2018-12-30T10:18:45.010Z,12.35
2018-12-30T10:21:13.415Z,15.30
2018-12-30T10:23:42.033Z,18.10
2018-12-30T10:26:10.675Z,11.78
2018-12-30T10:28:39.078Z,15.35
2018-12-30T10:31:07.462Z,15.98
2018-12-30T10:33:35.940Z,16.32
2018-12-30T10:36:04.330Z,16.45
2018-12-30T10:38:32.746Z,14.65
2018-12-30T10:41:01.171Z,17.73
2018-12-30T10:43:29.579Z,15.53
2018-12-30T10:45:57.974Z,10.90
2018-12-30T10:48:26.367Z,11.25
2018-12-30T10:50:54.789Z,12.68
2018-12-30T10:53:30.704Z,25.57
2018-12-30T10:55:59.101Z,16.07
2018-12-30T10:58:27.559Z,13.55
2018-12-30T11:00:56.022Z,17.95
2018-12-30T11:03:24.427Z,11.97
2018-12-30T11:05:52.829Z,11.93
2018-12-30T11:08:21.467Z,10.13
2018-12-30T11:10:49.861Z,8.80
2018-12-30T11:13:18.498Z,10.72
2018-12-30T11:15:46.898Z,11.48
2018-12-30T11:18:15.533Z,15.03
2018-12-30T11:20:43.933Z,11.00
2018-12-30T11:23:12.334Z,10.20
2018-12-30T11:25:40.989Z,9.50
2018-12-30T11:28:09.378Z,12.93
2018-12-30T11:30:37.841Z,9.05
2018-12-30T11:33:06.233Z,13.62
2018-12-30T11:35:34.633Z,10.40
2018-12-30T11:38:03.029Z,14.47
2018-12-30T11:40:31.434Z,11.05
2018-12-30T11:42:59.825Z,12.28
2018-12-30T11:45:28.217Z,7.47
2018-12-30T11:47:56.847Z,14.68
2018-12-30T11:50:25.243Z,10.60
2018-12-30T11:52:53.633Z,9.88
2018-12-30T11:55:22.045Z,7.90
2018-12-30T11:57:50.433Z,10.90
2018-12-30T12:00:18.906Z,10.20
2018-12-30T12:02:47.301Z,16.57
2018-12-30T12:05:15.705Z,10.85
2018-12-30T12:07:44.339Z,12.03
2018-12-30T12:10:12.888Z,11.08
2018-12-30T12:12:48.650Z,13.28
2018-12-30T12:15:11.466Z,11.38
2018-12-30T12:17:39.859Z,13.58
2018-12-30T12:20:08.249Z,19.65
2018-12-30T12:22:36.651Z,13.15
2018-12-30T12:25:06.209Z,6.17
2018-12-30T12:27:34.616Z,11.53
2018-12-30T12:30:03.442Z,9.00
2018-12-30T12:32:31.861Z,10.95
2018-12-30T12:35:00.226Z,6.85
2018-12-30T12:37:28.694Z,11.53
2018-12-30T12:39:57.087Z,8.30
2018-12-30T12:42:25.483Z,11.53
2018-12-30T12:44:53.884Z,7.42
2018-12-30T12:47:22.265Z,9.00
2018-12-30T12:49:50.653Z,7.58
2018-12-30T12:52:19.051Z,9.23
2018-12-30T12:54:47.443Z,8.75
2018-12-30T12:57:15.840Z,10.78
2018-12-30T12:59:44.275Z,8.35
2018-12-30T13:02:12.677Z,11.20
2018-12-30T13:04:41.071Z,11.28
2018-12-30T13:07:09.474Z,11.97
2018-12-30T13:09:37.885Z,11.43
2018-12-30T13:12:06.322Z,7.40
2018-12-30T13:14:34.702Z,10.85
2018-12-30T13:17:03.110Z,5.78
2018-12-30T13:19:31.499Z,14.13
2018-12-30T13:22:00.858Z,7.03
2018-12-30T13:24:29.249Z,14.98
2018-12-30T13:26:57.882Z,21.90
2018-12-30T13:29:26.285Z,12.33
2018-12-30T13:31:54.906Z,15.03
2018-12-30T13:34:23.299Z,14.90
2018-12-30T13:37:00.747Z,9.93
2018-12-30T13:39:29.154Z,15.38
2018-12-30T13:41:57.554Z,12.65
2018-12-30T13:44:25.953Z,9.75
2018-12-30T13:46:54.359Z,8.38
2018-12-30T13:49:22.986Z,10.95
2018-12-30T13:51:53.181Z,9.08
2018-12-30T13:54:21.780Z,7.78
2018-12-30T13:56:50.402Z,15.45
2018-12-30T13:59:18.794Z,14.45
2018-12-30T14:01:47.190Z,8.83
2018-12-30T14:04:15.646Z,9.63
2018-12-30T14:06:44.274Z,9.15
2018-12-30T14:09:12.920Z,11.63
2018-12-30T14:11:41.305Z,10.43
2018-12-30T14:14:09.817Z,11.18
2018-12-30T14:16:38.214Z,26.45
2018-12-30T14:19:06.859Z,14.38
2018-12-30T14:21:35.499Z,7.55
2018-12-30T14:24:03.915Z,18.50
2018-12-30T14:26:32.308Z,12.75
2018-12-30T14:29:00.717Z,14.07
2018-12-30T14:31:29.109Z,20.30
2018-12-30T14:33:57.554Z,13.93
2018-12-30T14:36:25.946Z,9.23
2018-12-30T14:38:54.586Z,18.23
2018-12-30T14:41:22.983Z,9.20
2018-12-30T14:43:51.373Z,12.45
2018-12-30T14:46:19.773Z,14.30
2018-12-30T14:48:48.166Z,11.88
2018-12-30T14:51:16.562Z,13.90
2018-12-30T14:53:44.954Z,9.90
2018-12-30T14:56:13.351Z,11.03
2018-12-30T14:58:41.985Z,13.93
2018-12-30T15:01:14.729Z,9.70
2018-12-30T15:03:40.498Z,21.05
2018-12-30T15:06:09.123Z,12.33
2018-12-30T15:08:37.522Z,12.13
2018-12-30T15:11:07.574Z,13.50
2018-12-30T15:13:36.427Z,12.50
2018-12-30T15:16:04.894Z,9.45
2018-12-30T15:18:33.282Z,16.02
2018-12-30T15:21:01.682Z,11.18
2018-12-30T15:23:30.088Z,12.18
2018-12-30T15:25:58.484Z,12.73
2018-12-30T15:28:26.871Z,19.30
2018-12-30T15:30:55.270Z,19.75
2018-12-30T15:33:23.671Z,11.40
2018-12-30T15:35:52.070Z,13.20
2018-12-30T15:38:20.704Z,13.60
2018-12-30T15:40:49.098Z,7.42
2018-12-30T15:43:17.487Z,10.08
2018-12-30T15:45:45.887Z,13.25
2018-12-30T15:48:14.551Z,17.00
2018-12-30T15:50:42.955Z,17.77
2018-12-30T15:53:11.618Z,16.60
2018-12-30T15:55:40.014Z,11.80
2018-12-30T15:58:08.647Z,12.30
2018-12-30T16:00:37.282Z,10.03
2018-12-30T16:03:05.915Z,9.25
2018-12-30T16:05:34.306Z,9.78
2018-12-30T16:08:02.695Z,23.77
2018-12-30T16:10:31.329Z,43.33
2018-12-30T16:12:59.734Z,31.25
2018-12-30T16:15:28.370Z,25.92
2018-12-30T16:17:56.772Z,19.23
2018-12-30T16:20:25.167Z,10.10
2018-12-30T16:22:53.796Z,10.40
2018-12-30T16:25:27.145Z,13.75
2018-12-30T16:27:52.322Z,11.30
2018-12-30T16:30:20.955Z,19.50
2018-12-30T16:32:49.345Z,16.48
2018-12-30T16:35:18.715Z,19.05
2018-12-30T16:37:47.414Z,17.27
2018-12-30T16:40:15.806Z,13.22
2018-12-30T16:42:44.207Z,11.48
2018-12-30T16:45:12.589Z,11.28
2018-12-30T16:47:41.989Z,14.18
2018-12-30T16:50:10.630Z,14.50
2018-12-30T16:52:39.026Z,22.42
2018-12-30T16:55:07.417Z,11.50
2018-12-30T16:57:35.813Z,39.78
2018-12-30T17:00:06.887Z,61.65
2018-12-30T17:02:35.283Z,88.58
2018-12-30T17:05:05.754Z,52.43
2018-12-30T17:07:34.330Z,11.75
2018-12-30T17:10:02.722Z,11.80
2018-12-30T17:12:32.146Z,25.60
2018-12-30T17:15:00.702Z,27.27
2018-12-30T17:17:29.339Z,19.73
2018-12-30T17:19:57.743Z,19.25
2018-12-30T17:22:26.375Z,10.95
2018-12-30T17:24:54.786Z,20.90
2018-12-30T17:27:23.199Z,13.88
2018-12-30T17:29:51.622Z,11.08
2018-12-30T17:32:19.986Z,7.90
2018-12-30T17:34:48.373Z,12.95
2018-12-30T17:37:16.773Z,10.18
2018-12-30T17:39:45.172Z,12.88
2018-12-30T17:42:13.561Z,9.30
2018-12-30T17:44:47.747Z,8.30
2018-12-30T17:47:16.146Z,13.53
2018-12-30T17:49:44.546Z,8.83
2018-12-30T17:52:13.183Z,9.65
2018-12-30T17:54:41.599Z,10.95
2018-12-30T17:57:10.368Z,18.65
2018-12-30T17:59:39.216Z,7.92
2018-12-30T18:02:07.847Z,8.98
2018-12-30T18:04:36.250Z,14.75
2018-12-30T18:07:04.640Z,8.25
2018-12-30T18:09:33.053Z,18.77
2018-12-30T18:12:01.526Z,12.33
2018-12-30T18:14:29.926Z,14.85
2018-12-30T18:16:58.325Z,19.15
2018-12-30T18:19:26.719Z,9.13
2018-12-30T18:21:55.117Z,12.30
2018-12-30T18:24:23.517Z,12.58
2018-12-30T18:26:51.931Z,13.55
2018-12-30T18:29:21.220Z,14.98
2018-12-30T18:31:49.657Z,12.93
2018-12-30T18:34:18.055Z,17.40
2018-12-30T18:36:46.458Z,16.62
2018-12-30T18:39:15.206Z,17.67
2018-12-30T18:41:43.620Z,13.85
2018-12-30T18:44:12.005Z,14.65
2018-12-30T18:46:40.416Z,14.45
2018-12-30T18:49:09.051Z,17.80
2018-12-30T18:51:37.683Z,17.87
2018-12-30T18:54:06.077Z,13.30
2018-12-30T18:56:34.555Z,21.68
2018-12-30T18:59:03.182Z,13.53
2018-12-30T19:01:31.582Z,11.73
2018-12-30T19:04:00.227Z,15.08
2018-12-30T19:06:28.630Z,15.23
2018-12-30T19:08:57.018Z,11.93
2018-12-30T19:11:25.676Z,14.50
2018-12-30T19:13:54.313Z,11.45
2018-12-30T19:16:22.710Z,18.20
2018-12-30T19:18:51.112Z,10.40
2018-12-30T19:21:19.746Z,14.35
2018-12-30T19:23:56.487Z,12.43
2018-12-30T19:26:25.181Z,12.13
2018-12-30T19:28:53.837Z,12.33
2018-12-30T19:31:22.224Z,10.95
2018-12-30T19:33:50.868Z,12.70
2018-12-30T19:36:19.263Z,17.35
2018-12-30T19:38:47.658Z,10.95
2018-12-30T19:41:16.054Z,10.45
2018-12-30T19:43:44.453Z,9.45
2018-12-30T19:46:12.853Z,10.53
2018-12-30T19:48:41.263Z,12.15
2018-12-30T19:51:09.658Z,7.83
2018-12-30T19:53:38.050Z,10.10
2018-12-30T19:56:06.467Z,8.13
2018-12-30T19:58:35.099Z,7.33
2018-12-30T20:01:03.743Z,10.75
2018-12-30T20:03:32.138Z,9.68
2018-12-30T20:06:00.795Z,7.60
2018-12-30T20:08:29.205Z,7.47
2018-12-30T20:10:57.846Z,7.67
2018-12-30T20:13:26.244Z,6.60
2018-12-30T20:15:54.946Z,7.70
2018-12-30T20:18:23.342Z,7.28
2018-12-30T20:20:51.742Z,12.85
2018-12-30T20:23:20.151Z,8.50
2018-12-30T20:25:48.618Z,7.90
2018-12-30T20:28:17.020Z,7.25
2018-12-30T20:30:45.660Z,10.55
2018-12-30T20:33:14.073Z,11.57
2018-12-30T20:35:42.460Z,9.65
2018-12-30T20:38:10.975Z,8.15
2018-12-30T20:40:39.415Z,8.90
2018-12-30T20:43:09.188Z,21.42
2018-12-30T20:45:37.816Z,19.45
2018-12-30T20:48:07.213Z,14.60
2018-12-30T20:50:38.658Z,13.22
2018-12-30T20:53:07.062Z,11.65
2018-12-30T20:55:35.486Z,10.28
2018-12-30T20:58:04.156Z,10.53
2018-12-30T21:00:32.566Z,9.48
2018-12-30T21:03:01.202Z,9.00
2018-12-30T21:05:29.613Z,12.50
2018-12-30T21:07:58.022Z,8.15
2018-12-30T21:10:26.411Z,13.85
2018-12-30T21:12:54.844Z,29.50
2018-12-30T21:15:23.497Z,14.15
2018-12-30T21:17:51.890Z,7.70
2018-12-30T21:20:20.308Z,11.30
2018-12-30T21:22:48.942Z,11.10
2018-12-30T21:28:05.737Z,8.23
2018-12-30T21:30:36.366Z,9.95
2018-12-30T21:33:04.762Z,10.30
2018-12-30T21:35:33.181Z,15.50
2018-12-30T21:38:01.582Z,14.20
2018-12-30T21:40:30.246Z,14.23
2018-12-30T21:42:58.876Z,11.63
2018-12-30T21:45:27.335Z,15.78
2018-12-30T21:47:55.736Z,14.68
2018-12-30T21:50:24.159Z,16.77
2018-12-30T21:52:52.782Z,12.05
2018-12-30T21:55:21.234Z,10.63
2018-12-30T21:57:49.634Z,12.20
2018-12-30T22:00:18.046Z,14.50
2018-12-30T22:02:46.457Z,12.43
2018-12-30T22:05:14.841Z,10.35
2018-12-30T22:07:43.490Z,11.22
2018-12-30T22:10:17.261Z,9.53
2018-12-30T22:12:42.019Z,9.88
2018-12-30T22:15:10.406Z,9.65
2018-12-30T22:17:38.801Z,10.68
2018-12-30T22:20:07.430Z,7.70
2018-12-30T22:22:41.938Z,8.38
2018-12-30T22:25:10.654Z,5.87
2018-12-30T22:27:39.302Z,7.20
2018-12-30T22:30:07.793Z,8.33
2018-12-30T22:32:36.302Z,8.83
2018-12-30T22:35:05.985Z,8.73
2018-12-30T22:37:34.628Z,6.40
2018-12-30T22:40:03.398Z,7.90
2018-12-30T22:42:32.856Z,8.88
2018-12-30T22:45:01.573Z,8.25
2018-12-30T22:47:30.209Z,6.70
2018-12-30T22:49:58.609Z,10.13
2018-12-30T22:52:27.058Z,8.60
2018-12-30T22:54:55.451Z,8.33
2018-12-30T22:57:23.848Z,6.85
2018-12-30T22:59:52.241Z,8.98
2018-12-30T23:02:20.646Z,7.25
2018-12-30T23:04:49.289Z,9.83
2018-12-30T23:07:17.942Z,11.97
2018-12-30T23:09:46.609Z,9.78
2018-12-30T23:12:15.006Z,11.88
2018-12-30T23:14:43.410Z,12.53
2018-12-30T23:17:11.786Z,9.38
2018-12-30T23:19:40.189Z,10.78
2018-12-30T23:22:08.585Z,10.20
2018-12-30T23:24:37.013Z,12.28
2018-12-30T23:27:05.408Z,13.88
2018-12-30T23:29:33.819Z,13.60
2018-12-30T23:32:02.214Z,10.98
2018-12-30T23:34:30.630Z,8.53
2018-12-30T23:36:59.302Z,10.38
2018-12-30T23:39:27.756Z,9.28
2018-12-30T23:41:56.145Z,10.00
2018-12-30T23:44:24.976Z,8.15
2018-12-30T23:46:53.402Z,6.97
2018-12-30T23:49:22.131Z,7.62
2018-12-30T23:51:50.969Z,9.20
2018-12-30T23:54:19.604Z,6.83
2018-12-30T23:56:47.994Z,7.50
2018-12-30T23:59:16.401Z,7.35
